Time;durP1;ratioP1;P1;durP2;ratioP2;P2;SDS_P1;SDS_P2;PMS_P1;PMS_P2;Temp;Humidity;BMP_temperature;BMP_pressure;BME280_temperature;BME280_humidity;BME280_pressure;Samples;Min_cycle;Max_cycle;Signal;HPM_P1;HPM_P2
2022/09/04 00:03:53;;;;;;;;;;;;;;;19.19;43.92578;101424;;;;-74
2022/09/04 00:09:01;;;;;;;;;;;;;;;19.13;44.20313;101425.3;;;;-74
2022/09/04 00:12:35;;;;;;;3.6;2.2;;;;;;;;;;;;;-74
2022/09/04 00:13:53;;;;;;;;;;;;;;;19.09;44.09766;101426.2;;;;-76
2022/09/04 00:18:52;;;;;;;;;;;;;;;19.04;44.25195;101427.1;;;;-74
2022/09/04 00:23:53;;;;;;;;;;;;;;;18.97;44.18848;101428;;;;-76
2022/09/04 00:28:51;;;;;;;;;;;;;;;18.93;44.33203;101430.9;;;;-75
2022/09/04 00:33:57;;;;;;;;;;;;;;;18.88;44.44141;101438;;;;-74
2022/09/04 00:38:53;;;;;;;;;;;;;;;18.84;44.50488;101439.7;;;;-75
2022/09/04 00:42:50;;;;;;;4.2;2.4;;;;;;;;;;;;;-75
2022/09/04 00:44:12;;;;;;;;;;;;;;;18.8;44.69531;101446.6;;;;-75
2022/09/04 00:49:03;;;;;;;;;;;;;;;18.74;44.76953;101450.4;;;;-74
2022/09/04 00:54:15;;;;;;;;;;;;;;;18.71;44.61719;101454.2;;;;-75
2022/09/04 00:59:00;;;;;;;;;;;;;;;18.64;44.98633;101459.4;;;;-75
2022/09/04 01:03:56;;;;;;;;;;;;;;;18.59;45.44922;101464.4;;;;-75
2022/09/04 01:09:00;;;;;;;;;;;;;;;18.53;44.99805;101463.6;;;;-76
2022/09/04 01:12:40;;;;;;;5.1;2.4;;;;;;;;;;;;;-74
2022/09/04 01:13:54;;;;;;;;;;;;;;;18.5;45.64355;101467.9;;;;-74
2022/09/04 01:18:55;;;;;;;;;;;;;;;18.48;45.38086;101474;;;;-74
2022/09/04 01:23:59;;;;;;;;;;;;;;;18.42;45.10156;101476.7;;;;-76
2022/09/04 01:28:58;;;;;;;;;;;;;;;18.4;45.12207;101482.5;;;;-76
2022/09/04 01:33:54;;;;;;;;;;;;;;;18.37;45.19824;101484.4;;;;-75
2022/09/04 01:38:53;;;;;;;;;;;;;;;18.3;45.32715;101486.1;;;;-75
2022/09/04 01:42:44;;;;;;;4.1;2.6;;;;;;;;;;;;;-74
2022/09/04 01:43:49;;;;;;;;;;;;;;;18.26;45.02734;101487.9;;;;-75
2022/09/04 01:48:52;;;;;;;;;;;;;;;18.2;45.55664;101491.7;;;;-76
2022/09/04 01:53:53;;;;;;;;;;;;;;;18.15;45.7334;101492.6;;;;-76
2022/09/04 01:58:50;;;;;;;;;;;;;;;18.14;46.18652;101500.7;;;;-77
2022/09/04 02:03:55;;;;;;;;;;;;;;;18.09;46.0791;101493.7;;;;-75
2022/09/04 02:08:59;;;;;;;;;;;;;;;18.07;46.20313;101501.1;;;;-75
2022/09/04 02:12:49;;;;;;;6.5;3.7;;;;;;;;;;;;;-74
2022/09/04 02:14:01;;;;;;;;;;;;;;;18.02;47.1748;101501.9;;;;-74
2022/09/04 02:18:54;;;;;;;;;;;;;;;18;47.08203;101497.6;;;;-75
2022/09/04 02:23:54;;;;;;;;;;;;;;;17.98;46.5459;101500.5;;;;-75
2022/09/04 02:28:55;;;;;;;;;;;;;;;17.96;46.38477;101507.2;;;;-75
2022/09/04 02:33:51;;;;;;;;;;;;;;;17.93;46.34766;101507.8;;;;-75
2022/09/04 02:38:57;;;;;;;;;;;;;;;17.89;46.70703;101511.8;;;;-76
2022/09/04 02:42:47;;;;;;;6.1;3.7;;;;;;;;;;;;;-75
2022/09/04 02:43:56;;;;;;;;;;;;;;;17.85;46.74805;101520.6;;;;-75
2022/09/04 02:48:58;;;;;;;;;;;;;;;17.82;46.84668;101522.9;;;;-75
2022/09/04 02:53:54;;;;;;;;;;;;;;;17.79;47.69531;101525.4;;;;-76
2022/09/04 02:58:56;;;;;;;;;;;;;;;17.77;47.47754;101524.1;;;;-75
2022/09/04 03:03:50;;;;;;;;;;;;;;;17.78;47.3877;101529.4;;;;-75
2022/09/04 03:08:52;;;;;;;;;;;;;;;17.77;47.48828;101528.7;;;;-75
2022/09/04 03:12:47;;;;;;;6.2;3.9;;;;;;;;;;;;;-74
2022/09/04 03:13:52;;;;;;;;;;;;;;;17.73;47.63281;101534.5;;;;-77
2022/09/04 03:19:05;;;;;;;;;;;;;;;17.7;47.33496;101538.3;;;;-75
2022/09/04 03:23:51;;;;;;;;;;;;;;;17.69;47.56055;101544.4;;;;-77
2022/09/04 03:28:58;;;;;;;;;;;;;;;17.66;47.85254;101546.1;;;;-74
2022/09/04 03:33:54;;;;;;;;;;;;;;;17.64;47.88379;101551.1;;;;-75
2022/09/04 03:38:53;;;;;;;;;;;;;;;17.6;48.31055;101559.5;;;;-75
2022/09/04 03:42:52;;;;;;;8.4;4.7;;;;;;;;;;;;;-75
2022/09/04 03:44:03;;;;;;;;;;;;;;;17.58;48.32031;101562.7;;;;-75
2022/09/04 03:48:56;;;;;;;;;;;;;;;17.56;48.77246;101566.9;;;;-74
2022/09/04 03:53:55;;;;;;;;;;;;;;;17.52;48.84668;101569.3;;;;-77
2022/09/04 03:58:54;;;;;;;;;;;;;;;17.5;49.28809;101583.4;;;;-76
2022/09/04 04:03:57;;;;;;;;;;;;;;;17.48;49.43262;101584.8;;;;-76
2022/09/04 04:09:10;;;;;;;;;;;;;;;17.44;50.98145;101590;;;;-75
2022/09/04 04:12:55;;;;;;;10.3;6.7;;;;;;;;;;;;;-74
2022/09/04 04:13:58;;;;;;;;;;;;;;;17.39;50.7959;101588.6;;;;-76
2022/09/04 04:18:58;;;;;;;;;;;;;;;17.39;50.96387;101584.6;;;;-75
2022/09/04 04:24:07;;;;;;;;;;;;;;;17.37;50.83789;101583.6;;;;-75
2022/09/04 04:28:58;;;;;;;;;;;;;;;17.36;51.1543;101587.5;;;;-75
2022/09/04 04:33:56;;;;;;;;;;;;;;;17.34;51.41309;101594.3;;;;-74
2022/09/04 04:39:00;;;;;;;;;;;;;;;17.31;52.02051;101593.7;;;;-76
2022/09/04 04:42:54;;;;;;;11.7;7.8;;;;;;;;;;;;;-74
2022/09/04 04:43:56;;;;;;;;;;;;;;;17.28;52.57227;101599.2;;;;-76
2022/09/04 04:49:03;;;;;;;;;;;;;;;17.27;52.63965;101608.5;;;;-75
2022/09/04 04:53:52;;;;;;;;;;;;;;;17.26;52.9668;101609;;;;-75
2022/09/04 04:58:58;;;;;;;;;;;;;;;17.25;52.52441;101613.7;;;;-76
2022/09/04 05:04:03;;;;;;;;;;;;;;;17.24;52.31836;101618.3;;;;-76
2022/09/04 05:08:55;;;;;;;;;;;;;;;17.22;52.70117;101630;;;;-75
2022/09/04 05:12:57;;;;;;;11.4;6.8;;;;;;;;;;;;;-76
2022/09/04 05:14:00;;;;;;;;;;;;;;;17.21;52.50781;101639.7;;;;-74
2022/09/04 05:18:55;;;;;;;;;;;;;;;17.2;53.27637;101645.5;;;;-74
2022/09/04 05:23:53;;;;;;;;;;;;;;;17.21;52.49609;101650.2;;;;-76
2022/09/04 05:28:53;;;;;;;;;;;;;;;17.21;52.57617;101656.5;;;;-75
2022/09/04 05:33:54;;;;;;;;;;;;;;;17.22;52.55371;101668.8;;;;-75
2022/09/04 05:38:58;;;;;;;;;;;;;;;17.22;52.89355;101671.3;;;;-75
2022/09/04 05:43:01;;;;;;;12.1;7.3;;;;;;;;;;;;;-76
2022/09/04 05:44:03;;;;;;;;;;;;;;;17.23;53.16797;101673.8;;;;-75
2022/09/04 05:48:53;;;;;;;;;;;;;;;17.26;53.92969;101680.1;;;;-76
2022/09/04 05:54:01;;;;;;;;;;;;;;;17.31;54.76172;101680.4;;;;-77
2022/09/04 05:59:00;;;;;;;;;;;;;;;17.39;54.21777;101679.2;;;;-75
2022/09/04 06:03:58;;;;;;;;;;;;;;;17.59;54.60449;101687;;;;-75
2022/09/04 06:09:00;;;;;;;;;;;;;;;17.8;53.83789;101696.5;;;;-75
2022/09/04 06:13:12;;;;;;;13.3;7.9;;;;;;;;;;;;;-75
2022/09/04 06:14:01;;;;;;;;;;;;;;;18.06;54.03906;101702;;;;-75
2022/09/04 06:18:59;;;;;;;;;;;;;;;18.41;53.58105;101705.3;;;;-75
2022/09/04 06:24:03;;;;;;;;;;;;;;;18.67;53.2041;101699.2;;;;-75
2022/09/04 06:29:14;;;;;;;;;;;;;;;18.91;52.02637;101694.9;;;;-75
2022/09/04 06:33:56;;;;;;;;;;;;;;;19.12;51.93848;101700.5;;;;-74
2022/09/04 06:38:54;;;;;;;;;;;;;;;19.36;50.95313;101707.1;;;;-75
2022/09/04 06:43:08;;;;;;;9.8;6.6;;;;;;;;;;;;;-76
2022/09/04 06:43:52;;;;;;;;;;;;;;;19.66;50.49609;101708.6;;;;-75
2022/09/04 06:48:55;;;;;;;;;;;;;;;20.01;49.99023;101710.2;;;;-76
2022/09/04 06:53:54;;;;;;;;;;;;;;;20.29;49.47266;101711.5;;;;-75
2022/09/04 06:58:58;;;;;;;;;;;;;;;20.49;49.16406;101712.2;;;;-76
2022/09/04 07:03:54;;;;;;;;;;;;;;;20.69;49.02539;101714.6;;;;-75
2022/09/04 07:08:57;;;;;;;;;;;;;;;20.96;48.66602;101718.3;;;;-76
2022/09/04 07:13:18;;;;;;;11.4;7.1;;;;;;;;;;;;;-75
2022/09/04 07:14:15;;;;;;;;;;;;;;;21.18;49.13672;101725.9;;;;-77
2022/09/04 07:19:03;;;;;;;;;;;;;;;21.48;49.22754;101728.5;;;;-77
2022/09/04 07:23:53;;;;;;;;;;;;;;;21.79;49.07813;101734.2;;;;-74
2022/09/04 07:28:54;;;;;;;;;;;;;;;22.13;48.90918;101731.1;;;;-77
2022/09/04 07:33:59;;;;;;;;;;;;;;;22.46;48.78516;101742.1;;;;-76
2022/09/04 07:38:54;;;;;;;;;;;;;;;22.73;48.32031;101743.9;;;;-74
2022/09/04 07:43:08;;;;;;;11.8;8.2;;;;;;;;;;;;;-76
2022/09/04 07:43:53;;;;;;;;;;;;;;;23.08;48.24316;101745.9;;;;-75
2022/09/04 07:48:53;;;;;;;;;;;;;;;23.42;47.86523;101742.8;;;;-75
2022/09/04 07:54:03;;;;;;;;;;;;;;;23.71;47.83789;101749.6;;;;-75
2022/09/04 07:58:59;;;;;;;;;;;;;;;23.98;47.59082;101758;;;;-76
2022/09/04 08:03:58;;;;;;;;;;;;;;;24.27;47.40234;101763;;;;-75
2022/09/04 08:09:01;;;;;;;;;;;;;;;24.65;46.90039;101767.1;;;;-78
2022/09/04 08:13:17;;;;;;;10.3;7.4;;;;;;;;;;;;;-76
2022/09/04 08:14:12;;;;;;;;;;;;;;;25.06;46.3877;101772.6;;;;-76
2022/09/04 08:19:02;;;;;;;;;;;;;;;25.45;45.71191;101778;;;;-76
2022/09/04 08:24:12;;;;;;;;;;;;;;;25.8;45.14648;101776.5;;;;-76
2022/09/04 08:28:59;;;;;;;;;;;;;;;26.13;44.71484;101785;;;;-77
2022/09/04 08:33:55;;;;;;;;;;;;;;;26.41;44.37305;101789.7;;;;-76
2022/09/04 08:39:00;;;;;;;;;;;;;;;26.68;43.87695;101794.1;;;;-77
2022/09/04 08:43:21;;;;;;;11.2;6.6;;;;;;;;;;;;;-76
2022/09/04 08:44:03;;;;;;;;;;;;;;;26.97;43.2666;101793.2;;;;-77
2022/09/04 08:49:12;;;;;;;;;;;;;;;27.27;43.19141;101796.4;;;;-77
2022/09/04 08:54:05;;;;;;;;;;;;;;;27.62;42.60742;101800.1;;;;-76
2022/09/04 08:59:09;;;;;;;;;;;;;;;27.9;42.37793;101801.3;;;;-76
2022/09/04 09:04:02;;;;;;;;;;;;;;;28.19;41.98633;101804.4;;;;-75
2022/09/04 09:09:07;;;;;;;;;;;;;;;28.54;41.40039;101805.2;;;;-76
2022/09/04 09:13:31;;;;;;;10.4;7;;;;;;;;;;;;;-75
2022/09/04 09:14:03;;;;;;;;;;;;;;;28.74;41.36035;101800.6;;;;-75
2022/09/04 09:18:56;;;;;;;;;;;;;;;29.01;41.12891;101805;;;;-77
2022/09/04 09:24:05;;;;;;;;;;;;;;;29.24;40.9043;101804.3;;;;-77
2022/09/04 09:29:02;;;;;;;;;;;;;;;29.5;40.51855;101807.7;;;;-76
2022/09/04 09:34:04;;;;;;;;;;;;;;;29.79;40.13574;101810.2;;;;-76
2022/09/04 09:39:04;;;;;;;;;;;;;;;30.03;40.12109;101805.4;;;;-76
2022/09/04 09:43:40;;;;;;;10.2;7.3;;;;;;;;;;;;;-77
2022/09/04 09:44:03;;;;;;;;;;;;;;;30.2;40.16016;101807.9;;;;-76
2022/09/04 09:49:16;;;;;;;;;;;;;;;30.35;39.40039;101813.2;;;;-76
2022/09/04 09:54:05;;;;;;;;;;;;;;;30.39;39.23926;101810.4;;;;-76
2022/09/04 09:59:03;;;;;;;;;;;;;;;30.54;39.21777;101811.7;;;;-75
2022/09/04 10:04:10;;;;;;;;;;;;;;;30.62;39.39941;101806.6;;;;-74
2022/09/04 10:09:12;;;;;;;;;;;;;;;30.79;39.11035;101810.3;;;;-75
2022/09/04 10:13:38;;;;;;;7.6;5.5;;;;;;;;;;;;;-75
2022/09/04 10:14:00;;;;;;;;;;;;;;;31.01;39.1875;101809.8;;;;-74
2022/09/04 10:19:07;;;;;;;;;;;;;;;31.26;39.2207;101816.7;;;;-75
2022/09/04 10:24:04;;;;;;;;;;;;;;;31.55;39.02246;101816.3;;;;-76
2022/09/04 10:28:58;;;;;;;;;;;;;;;31.89;38.81738;101820.3;;;;-76
2022/09/04 10:34:00;;;;;;;;;;;;;;;32.16;38.47461;101821.8;;;;-76
2022/09/04 10:43:34;;;;;;;8.8;4.9;;;;;;;;;;;;;-74
2022/09/04 10:44:00;;;;;;;;;;;;;;;32.58;37.74512;101828.1;;;;-75
2022/09/04 10:48:59;;;;;;;;;;;;;;;32.73;37.83984;101832.5;;;;-75
2022/09/04 10:54:05;;;;;;;;;;;;;;;32.79;38.0332;101829;;;;-74
2022/09/04 10:58:59;;;;;;;;;;;;;;;32.85;37.70898;101825;;;;-74
2022/09/04 11:03:56;;;;;;;;;;;;;;;32.98;38.06055;101825.5;;;;-75
2022/09/04 11:08:53;;;;;;;;;;;;;;;33.09;38.08203;101825.4;;;;-74
2022/09/04 11:13:55;;;;;;;4.8;3.7;;;;;;;;;;;;;-74
2022/09/04 11:14:24;;;;;;;;;;;;;;;33.16;38.0166;101827;;;;-74
2022/09/04 11:19:01;;;;;;;;;;;;;;;33.24;38.07129;101830.7;;;;-75
2022/09/04 11:24:04;;;;;;;;;;;;;;;33.36;37.83203;101830;;;;-75
2022/09/04 11:28:58;;;;;;;;;;;;;;;33.47;37.2168;101828.4;;;;-75
2022/09/04 11:34:02;;;;;;;;;;;;;;;33.55;36.95117;101825.7;;;;-76
2022/09/04 11:38:59;;;;;;;;;;;;;;;33.6;37.72266;101832.6;;;;-77
2022/09/04 11:43:49;;;;;;;6.2;4.3;;;;;;;;;;;;;-75
2022/09/04 11:44:11;;;;;;;;;;;;;;;33.66;37.59766;101824.3;;;;-76
2022/09/04 11:49:00;;;;;;;;;;;;;;;33.75;37.42871;101828.1;;;;-76
2022/09/04 11:53:59;;;;;;;;;;;;;;;33.78;36.93555;101823.2;;;;-77
2022/09/04 11:58:59;;;;;;;;;;;;;;;33.79;37.52637;101827.1;;;;-76
2022/09/04 12:03:56;;;;;;;;;;;;;;;33.89;37.19141;101821.9;;;;-76
2022/09/04 12:09:04;;;;;;;;;;;;;;;33.9;37.3584;101824.4;;;;-76
2022/09/04 12:13:54;;;;;;;6.5;3.1;;;;;;;;;;;;;-75
2022/09/04 12:14:14;;;;;;;;;;;;;;;33.89;36.91992;101822.9;;;;-75
2022/09/04 12:19:00;;;;;;;;;;;;;;;34.01;36.20996;101824.7;;;;-75
2022/09/04 12:24:01;;;;;;;;;;;;;;;34.15;36.82324;101830.8;;;;-76
2022/09/04 12:28:59;;;;;;;;;;;;;;;34.24;36.07422;101828.4;;;;-77
2022/09/04 12:34:00;;;;;;;;;;;;;;;34.3;36.90625;101830.7;;;;-76
2022/09/04 12:39:02;;;;;;;;;;;;;;;34.36;37.1709;101826.2;;;;-76
2022/09/04 12:44:00;;;;;;;7.8;4.5;;;;;;;;;;;;;-75
2022/09/04 12:44:14;;;;;;;;;;;;;;;34.38;36.21484;101834.8;;;;-75
2022/09/04 12:48:54;;;;;;;;;;;;;;;34.37;36.48633;101828.6;;;;-75
2022/09/04 12:54:07;;;;;;;;;;;;;;;34.35;36.80273;101833.7;;;;-75
2022/09/04 12:59:01;;;;;;;;;;;;;;;34.33;36.60059;101844.6;;;;-74
2022/09/04 13:03:57;;;;;;;;;;;;;;;34.16;36.2207;101841.6;;;;-74
2022/09/04 13:08:55;;;;;;;;;;;;;;;33.94;36.2041;101837.7;;;;-73
2022/09/04 13:13:55;;;;;;;;;;;;;;;33.77;35.72949;101837.3;;;;-75
2022/09/04 13:14:12;;;;;;;5.8;3.8;;;;;;;;;;;;;-75
2022/09/04 13:18:59;;;;;;;;;;;;;;;33.65;35.62598;101839.9;;;;-77
2022/09/04 13:23:56;;;;;;;;;;;;;;;33.57;35.97363;101837.9;;;;-76
2022/09/04 13:28:56;;;;;;;;;;;;;;;33.53;35.8877;101837.4;;;;-77
2022/09/04 13:33:54;;;;;;;;;;;;;;;33.53;36.19434;101839.3;;;;-75
2022/09/04 13:39:06;;;;;;;;;;;;;;;33.53;35.8877;101839.6;;;;-76
2022/09/04 13:43:59;;;;;;;;;;;;;;;33.44;35.82227;101845.6;;;;-76
2022/09/04 13:44:21;;;;;;;5;3.1;;;;;;;;;;;;;-76
2022/09/04 13:48:50;;;;;;;;;;;;;;;33.39;36.10059;101845.6;;;;-75
2022/09/04 13:54:02;;;;;;;;;;;;;;;33.4;36.17285;101843.8;;;;-75
2022/09/04 13:58:50;;;;;;;;;;;;;;;33.34;36.22656;101849.1;;;;-75
2022/09/04 14:03:51;;;;;;;;;;;;;;;33.2;36.15723;101841.9;;;;-76
2022/09/04 14:08:50;;;;;;;;;;;;;;;33.05;36.58203;101844.8;;;;-75
2022/09/04 14:14:00;;;;;;;;;;;;;;;32.86;36.61328;101848.9;;;;-76
2022/09/04 14:14:29;;;;;;;4.4;3;;;;;;;;;;;;;-76
2022/09/04 14:18:56;;;;;;;;;;;;;;;32.68;36.6582;101850.3;;;;-74
2022/09/04 14:23:51;;;;;;;;;;;;;;;32.55;36.76465;101849.7;;;;-75
2022/09/04 14:28:52;;;;;;;;;;;;;;;32.43;36.80273;101849.8;;;;-75
2022/09/04 14:33:53;;;;;;;;;;;;;;;32.29;36.84961;101853;;;;-76
2022/09/04 14:39:02;;;;;;;;;;;;;;;32.15;37.0625;101859;;;;-77
2022/09/04 14:43:59;;;;;;;;;;;;;;;31.98;36.89551;101858;;;;-76
2022/09/04 14:44:17;;;;;;;5.3;2.9;;;;;;;;;;;;;-75
2022/09/04 14:48:51;;;;;;;;;;;;;;;31.79;37.24414;101848.8;;;;-76
2022/09/04 14:53:55;;;;;;;;;;;;;;;31.69;37.29492;101846.8;;;;-76
2022/09/04 14:58:51;;;;;;;;;;;;;;;31.61;37.19434;101843.2;;;;-77
2022/09/04 15:03:54;;;;;;;;;;;;;;;31.56;37.34375;101843.9;;;;-76
2022/09/04 15:08:50;;;;;;;;;;;;;;;31.56;37.35547;101847.4;;;;-76
2022/09/04 15:14:01;;;;;;;;;;;;;;;31.58;37.2168;101847.2;;;;-76
2022/09/04 15:14:25;;;;;;;3.9;2.5;;;;;;;;;;;;;-76
2022/09/04 15:18:54;;;;;;;;;;;;;;;31.59;37.18164;101844.9;;;;-74
2022/09/04 15:23:51;;;;;;;;;;;;;;;31.49;37.12695;101840.3;;;;-73
2022/09/04 15:28:50;;;;;;;;;;;;;;;31.37;37.45703;101836.8;;;;-76
2022/09/04 15:33:50;;;;;;;;;;;;;;;31.28;37.71973;101835.8;;;;-76
2022/09/04 15:38:55;;;;;;;;;;;;;;;31.24;37.56348;101836.9;;;;-76
2022/09/04 15:43:50;;;;;;;;;;;;;;;31.28;37.49707;101838.2;;;;-76
2022/09/04 15:44:26;;;;;;;4.7;2.8;;;;;;;;;;;;;-74
2022/09/04 15:48:52;;;;;;;;;;;;;;;31.35;37.3623;101840.9;;;;-74
2022/09/04 15:53:52;;;;;;;;;;;;;;;31.37;37.35059;101843;;;;-74
2022/09/04 15:58:53;;;;;;;;;;;;;;;31.25;37.21289;101844.7;;;;-76
2022/09/04 16:03:54;;;;;;;;;;;;;;;31.08;37.46875;101843;;;;-75
2022/09/04 16:08:51;;;;;;;;;;;;;;;30.91;37.63086;101845;;;;-75
2022/09/04 16:13:55;;;;;;;;;;;;;;;30.71;37.75488;101842.2;;;;-73
2022/09/04 16:14:27;;;;;;;4.2;3;;;;;;;;;;;;;-75
2022/09/04 16:18:53;;;;;;;;;;;;;;;30.51;37.87891;101842.6;;;;-76
2022/09/04 16:23:49;;;;;;;;;;;;;;;30.35;37.80664;101838.4;;;;-75
2022/09/04 16:28:54;;;;;;;;;;;;;;;30.15;37.84863;101830.5;;;;-76
2022/09/04 16:33:53;;;;;;;;;;;;;;;29.94;37.91309;101831.2;;;;-76
2022/09/04 16:38:51;;;;;;;;;;;;;;;29.78;37.99414;101836.1;;;;-76
2022/09/04 16:43:58;;;;;;;;;;;;;;;29.61;38.01465;101840.3;;;;-77
2022/09/04 16:44:33;;;;;;;8;4.7;;;;;;;;;;;;;-75
2022/09/04 16:48:52;;;;;;;;;;;;;;;29.44;38.10547;101844.1;;;;-77
2022/09/04 16:53:53;;;;;;;;;;;;;;;29.29;38.28027;101840.2;;;;-75
2022/09/04 16:58:55;;;;;;;;;;;;;;;29.16;38.19922;101843.2;;;;-75
2022/09/04 17:04:00;;;;;;;;;;;;;;;29.06;38.26074;101850;;;;-76
2022/09/04 17:08:50;;;;;;;;;;;;;;;28.96;38.49805;101848.3;;;;-76
2022/09/04 17:13:51;;;;;;;;;;;;;;;28.84;38.79004;101851.1;;;;-75
2022/09/04 17:14:39;;;;;;;7.4;5;;;;;;;;;;;;;-75
2022/09/04 17:18:53;;;;;;;;;;;;;;;28.69;39.06934;101858.6;;;;-74
2022/09/04 17:23:51;;;;;;;;;;;;;;;28.53;39.19531;101859.6;;;;-76
2022/09/04 17:28:58;;;;;;;;;;;;;;;28.36;39.24023;101855.6;;;;-75
2022/09/04 17:33:53;;;;;;;;;;;;;;;28.19;39.35352;101856.8;;;;-73
2022/09/04 17:38:52;;;;;;;;;;;;;;;28.02;39.38477;101862;;;;-74
2022/09/04 17:44:01;;;;;;;;;;;;;;;27.83;39.64746;101862.7;;;;-74
2022/09/04 17:44:45;;;;;;;7.9;5.4;;;;;;;;;;;;;-74
2022/09/04 17:48:49;;;;;;;;;;;;;;;27.62;39.66406;101861.4;;;;-74
2022/09/04 17:53:52;;;;;;;;;;;;;;;27.42;39.9502;101858.8;;;;-74
2022/09/04 17:58:51;;;;;;;;;;;;;;;27.22;40.09473;101864.1;;;;-74
2022/09/04 18:04:00;;;;;;;;;;;;;;;27.02;40.29785;101865.6;;;;-75
2022/09/04 18:08:53;;;;;;;;;;;;;;;26.82;40.53516;101869.6;;;;-75
2022/09/04 18:14:00;;;;;;;;;;;;;;;26.6;41.00293;101872.4;;;;-76
2022/09/04 18:14:46;;;;;;;7.1;5.2;;;;;;;;;;;;;-75
2022/09/04 18:18:52;;;;;;;;;;;;;;;26.38;41.25;101871;;;;-76
2022/09/04 18:23:53;;;;;;;;;;;;;;;26.17;41.72949;101880.1;;;;-76
2022/09/04 18:28:55;;;;;;;;;;;;;;;25.95;42.0332;101880.8;;;;-75
2022/09/04 18:33:50;;;;;;;;;;;;;;;25.75;42.41992;101894.8;;;;-74
2022/09/04 18:38:57;;;;;;;;;;;;;;;25.56;42.58691;101902.7;;;;-74
2022/09/04 18:43:52;;;;;;;;;;;;;;;25.36;42.86816;101908.3;;;;-76
2022/09/04 18:44:48;;;;;;;7.3;4.4;;;;;;;;;;;;;-75
2022/09/04 18:48:49;;;;;;;;;;;;;;;25.17;43.11719;101913.1;;;;-75
2022/09/04 18:53:52;;;;;;;;;;;;;;;24.98;43.26074;101921.6;;;;-77
2022/09/04 18:58:54;;;;;;;;;;;;;;;24.8;43.44043;101924.3;;;;-75
2022/09/04 19:03:52;;;;;;;;;;;;;;;24.61;43.68652;101926.8;;;;-75
2022/09/04 19:08:52;;;;;;;;;;;;;;;24.42;44.07324;101931.6;;;;-75
2022/09/04 19:13:51;;;;;;;;;;;;;;;24.25;44.0791;101929.2;;;;-74
2022/09/04 19:14:50;;;;;;;6;4.2;;;;;;;;;;;;;-74
2022/09/04 19:18:56;;;;;;;;;;;;;;;24.08;44.25879;101938.3;;;;-75
2022/09/04 19:23:51;;;;;;;;;;;;;;;23.89;44.43555;101937.9;;;;-76
2022/09/04 19:28:52;;;;;;;;;;;;;;;23.71;44.90234;101941;;;;-75
2022/09/04 19:33:53;;;;;;;;;;;;;;;23.52;45.00879;101937.5;;;;-76
2022/09/04 19:38:51;;;;;;;;;;;;;;;23.32;45.39258;101934.5;;;;-76
2022/09/04 19:43:53;;;;;;;;;;;;;;;23.17;45.87207;101936.6;;;;-76
2022/09/04 19:44:57;;;;;;;5.8;4.4;;;;;;;;;;;;;-76
2022/09/04 19:48:55;;;;;;;;;;;;;;;22.99;46.10645;101936.3;;;;-75
2022/09/04 19:53:53;;;;;;;;;;;;;;;22.83;46.29688;101937.8;;;;-76
2022/09/04 19:58:53;;;;;;;;;;;;;;;22.66;46.33789;101942.6;;;;-75
2022/09/04 20:03:57;;;;;;;;;;;;;;;22.52;46.56348;101937.6;;;;-76
2022/09/04 20:08:51;;;;;;;;;;;;;;;22.37;46.74414;101939.2;;;;-75
2022/09/04 20:13:51;;;;;;;;;;;;;;;22.23;46.97949;101937.4;;;;-77
2022/09/04 20:14:58;;;;;;;6.8;4.2;;;;;;;;;;;;;-75
2022/09/04 20:18:53;;;;;;;;;;;;;;;22.08;47.20508;101939.1;;;;-75
2022/09/04 20:23:51;;;;;;;;;;;;;;;21.93;47.39648;101939.3;;;;-76
2022/09/04 20:28:55;;;;;;;;;;;;;;;21.81;47.5918;101942.8;;;;-75
2022/09/04 20:33:50;;;;;;;;;;;;;;;21.69;47.71484;101941.5;;;;-75
2022/09/04 20:38:56;;;;;;;;;;;;;;;21.57;47.75879;101947.2;;;;-76
2022/09/04 20:43:53;;;;;;;;;;;;;;;21.48;47.86426;101950.6;;;;-75
2022/09/04 20:45:00;;;;;;;6.6;4.4;;;;;;;;;;;;;-75
2022/09/04 20:48:52;;;;;;;;;;;;;;;21.39;47.99219;101950.6;;;;-76
2022/09/04 20:53:55;;;;;;;;;;;;;;;21.28;48.08301;101955;;;;-76
2022/09/04 20:58:58;;;;;;;;;;;;;;;21.17;48.32227;101957.3;;;;-75
2022/09/04 21:03:57;;;;;;;;;;;;;;;21.04;48.59473;101958.5;;;;-75
2022/09/04 21:08:56;;;;;;;;;;;;;;;20.92;48.83398;101959.7;;;;-75
2022/09/04 21:13:52;;;;;;;;;;;;;;;20.82;49.55469;101959.5;;;;-76
2022/09/04 21:15:06;;;;;;;6.4;4.2;;;;;;;;;;;;;-74
2022/09/04 21:19:02;;;;;;;;;;;;;;;20.7;49.19727;101962.2;;;;-76
2022/09/04 21:24:11;;;;;;;;;;;;;;;20.61;49.3584;101956.7;;;;-77
2022/09/04 21:29:00;;;;;;;;;;;;;;;20.54;49.4541;101962.5;;;;-75
2022/09/04 21:33:59;;;;;;;;;;;;;;;20.46;49.67383;101957.1;;;;-75
2022/09/04 21:39:08;;;;;;;;;;;;;;;20.43;49.73828;101959.4;;;;-75
2022/09/04 21:44:12;;;;;;;;;;;;;;;20.35;50.11816;101966.2;;;;-75
2022/09/04 21:45:16;;;;;;;6.9;4.3;;;;;;;;;;;;;-75
2022/09/04 21:48:57;;;;;;;;;;;;;;;20.3;50.30762;101966.8;;;;-74
2022/09/04 21:53:57;;;;;;;;;;;;;;;20.25;50.68945;101974.2;;;;-75
2022/09/04 21:59:02;;;;;;;;;;;;;;;20.2;50.59277;101981.3;;;;-75
2022/09/04 22:03:52;;;;;;;;;;;;;;;20.19;51.26465;101985.7;;;;-75
2022/09/04 22:08:57;;;;;;;;;;;;;;;20.14;50.8252;101987.4;;;;-74
2022/09/04 22:13:57;;;;;;;;;;;;;;;20.1;51.06055;101987.3;;;;-78
2022/09/04 22:15:10;;;;;;;6.2;4.3;;;;;;;;;;;;;-76
2022/09/04 22:19:02;;;;;;;;;;;;;;;20.07;50.79492;101987.1;;;;-76
2022/09/04 22:24:01;;;;;;;;;;;;;;;20;50.79785;101984.3;;;;-76
2022/09/04 22:28:58;;;;;;;;;;;;;;;19.95;51.21387;101985.3;;;;-77
2022/09/04 22:33:58;;;;;;;;;;;;;;;19.94;52.13574;101985.6;;;;-76
2022/09/04 22:39:03;;;;;;;;;;;;;;;19.95;52.75293;101985.4;;;;-75
2022/09/04 22:43:52;;;;;;;;;;;;;;;19.93;53.93555;101985.4;;;;-75
2022/09/04 22:45:34;;;;;;;7.2;5.1;;;;;;;;;;;;;-75
2022/09/04 22:49:04;;;;;;;;;;;;;;;19.93;52.625;101988;;;;-76
2022/09/04 22:54:01;;;;;;;;;;;;;;;19.9;52.55371;101982.3;;;;-76
2022/09/04 22:59:09;;;;;;;;;;;;;;;19.86;52.45703;101983.9;;;;-76
2022/09/04 23:03:58;;;;;;;;;;;;;;;19.84;52.87793;101982.4;;;;-75
2022/09/04 23:09:02;;;;;;;;;;;;;;;19.83;52.48828;101982.9;;;;-74
2022/09/04 23:13:54;;;;;;;;;;;;;;;19.79;52.92773;101985.4;;;;-75
2022/09/04 23:15:22;;;;;;;7;4.7;;;;;;;;;;;;;-76
2022/09/04 23:19:01;;;;;;;;;;;;;;;19.77;52.70898;101983.3;;;;-77
2022/09/04 23:24:00;;;;;;;;;;;;;;;19.72;53.05566;101980.5;;;;-75
2022/09/04 23:28:59;;;;;;;;;;;;;;;19.71;52.70215;101977.5;;;;-76
2022/09/04 23:33:55;;;;;;;;;;;;;;;19.66;52.44629;101979.7;;;;-75
2022/09/04 23:39:12;;;;;;;;;;;;;;;19.62;51.99707;101971.3;;;;-75
2022/09/04 23:44:00;;;;;;;;;;;;;;;19.6;52.11914;101969.9;;;;-76
2022/09/04 23:45:31;;;;;;;6.3;4;;;;;;;;;;;;;-75
2022/09/04 23:49:06;;;;;;;;;;;;;;;19.55;51.88672;101964.5;;;;-75
2022/09/04 23:53:54;;;;;;;;;;;;;;;19.52;51.74609;101960.7;;;;-75
